createdAt,value
2022-08-20T00:02:31.813Z,7776.00
2022-08-20T00:07:38.985Z,8136.00
2022-08-20T00:12:46.189Z,7704.00
2022-08-20T00:17:53.345Z,-72.00
2022-08-20T00:23:00.553Z,-36.00
2022-08-20T00:28:07.758Z,-72.00
2022-08-20T00:33:14.924Z,-36.00
2022-08-20T00:38:22.160Z,-36.00
2022-08-20T00:43:29.319Z,-36.00
2022-08-20T00:48:36.536Z,-36.00
2022-08-20T00:53:43.744Z,-36.00
2022-08-20T00:58:50.950Z,-36.00
2022-08-20T01:03:58.139Z,-36.00
2022-08-20T01:09:05.284Z,-72.00
2022-08-20T01:14:12.507Z,-36.00
2022-08-20T01:19:30.066Z,-36.00
2022-08-20T01:24:26.982Z,-72.00
2022-08-20T01:29:34.243Z,-72.00
2022-08-20T01:34:41.466Z,-72.00
2022-08-20T01:39:48.733Z,-72.00
2022-08-20T01:44:55.921Z,-72.00
2022-08-20T01:50:03.091Z,-72.00
2022-08-20T01:55:10.286Z,-108.00
2022-08-20T02:00:19.733Z,-72.00
2022-08-20T02:05:24.669Z,-72.00
2022-08-20T02:10:31.984Z,-72.00
2022-08-20T02:15:42.998Z,-72.00
2022-08-20T02:20:46.420Z,-72.00
2022-08-20T02:25:53.619Z,-72.00
2022-08-20T02:31:00.874Z,-72.00
2022-08-20T02:36:08.056Z,-72.00
2022-08-20T02:41:15.254Z,-72.00
2022-08-20T02:46:22.450Z,-72.00
2022-08-20T02:51:30.663Z,-72.00
2022-08-20T02:56:37.101Z,-72.00
2022-08-20T03:01:44.259Z,-72.00
2022-08-20T03:06:51.492Z,-72.00
2022-08-20T03:11:58.876Z,-72.00
2022-08-20T03:17:06.050Z,-72.00
2022-08-20T03:22:13.235Z,-72.00
2022-08-20T03:27:21.347Z,-72.00
2022-08-20T03:32:27.590Z,-72.00
2022-08-20T03:37:34.770Z,-72.00
2022-08-20T03:42:41.952Z,-72.00
2022-08-20T03:47:49.141Z,-72.00
2022-08-20T03:52:56.383Z,-72.00
2022-08-20T03:58:03.602Z,-72.00
2022-08-20T04:03:10.908Z,-72.00
2022-08-20T04:08:18.118Z,-36.00
2022-08-20T04:13:25.309Z,-72.00
2022-08-20T04:18:32.489Z,-36.00
2022-08-20T04:23:39.635Z,-36.00
2022-08-20T04:28:46.830Z,-36.00
2022-08-20T04:33:54.055Z,-36.00
2022-08-20T04:39:01.260Z,0.00
2022-08-20T04:44:08.402Z,36.00
2022-08-20T04:49:15.561Z,36.00
2022-08-20T04:54:22.766Z,108.00
2022-08-20T04:59:29.970Z,108.00
2022-08-20T05:04:37.222Z,144.00
2022-08-20T05:09:44.432Z,144.00
2022-08-20T05:14:51.653Z,180.00
2022-08-20T05:19:58.870Z,216.00
2022-08-20T05:25:06.034Z,252.00
2022-08-20T05:30:13.621Z,252.00
2022-08-20T05:35:20.517Z,252.00
2022-08-20T05:40:27.761Z,288.00
2022-08-20T05:45:34.994Z,324.00
2022-08-20T05:50:42.238Z,432.00
2022-08-20T05:55:49.679Z,684.00
2022-08-20T06:00:56.933Z,972.00
2022-08-20T06:06:04.157Z,1044.00
2022-08-20T06:11:11.394Z,1008.00
2022-08-20T06:16:18.650Z,1116.00
2022-08-20T06:21:25.825Z,1008.00
2022-08-20T06:26:33.003Z,900.00
2022-08-20T06:31:41.239Z,1836.00
2022-08-20T06:36:48.473Z,1080.00
2022-08-20T06:41:55.650Z,2808.00
2022-08-20T06:47:02.813Z,2772.00
2022-08-20T06:52:10.027Z,1548.00
2022-08-20T06:57:17.164Z,1512.00
2022-08-20T07:02:30.498Z,1404.00
2022-08-20T07:07:31.569Z,1332.00
2022-08-20T07:12:38.777Z,1404.00
2022-08-20T07:17:47.467Z,1152.00
2022-08-20T07:22:54.669Z,2772.00
2022-08-20T07:28:01.894Z,2844.00
2022-08-20T07:33:09.141Z,2916.00
2022-08-20T07:38:16.369Z,2916.00
2022-08-20T07:43:23.597Z,2916.00
2022-08-20T07:48:31.887Z,2952.00
2022-08-20T07:53:38.042Z,2988.00
2022-08-20T07:58:45.233Z,3060.00
2022-08-20T08:03:52.388Z,3132.00
2022-08-20T08:08:59.616Z,3384.00
2022-08-20T08:14:06.940Z,3348.00
2022-08-20T08:19:14.198Z,1188.00
2022-08-20T08:24:25.344Z,21420.00
2022-08-20T08:29:28.531Z,19728.00
2022-08-20T08:34:35.712Z,24984.00
2022-08-20T08:39:43.042Z,27036.00
2022-08-20T08:44:50.359Z,27216.00
2022-08-20T08:49:57.658Z,26028.00
2022-08-20T08:55:04.887Z,25524.00
2022-08-20T09:00:12.065Z,27504.00
2022-08-20T09:05:19.341Z,25416.00
2022-08-20T09:10:26.569Z,25092.00
2022-08-20T09:15:33.820Z,26028.00
2022-08-20T09:20:40.998Z,27108.00
2022-08-20T09:25:48.256Z,25848.00
2022-08-20T09:30:55.610Z,19836.00
2022-08-20T09:36:02.837Z,17748.00
2022-08-20T09:41:10.030Z,17532.00
2022-08-20T09:46:17.293Z,16056.00
2022-08-20T09:51:24.518Z,15048.00
2022-08-20T09:56:31.683Z,17028.00
2022-08-20T10:01:38.896Z,19080.00
2022-08-20T10:06:46.085Z,21564.00
2022-08-20T10:11:53.269Z,21276.00
2022-08-20T10:17:00.567Z,19044.00
2022-08-20T10:22:07.829Z,19404.00
2022-08-20T10:27:15.026Z,18540.00
2022-08-20T10:32:22.240Z,17352.00
2022-08-20T10:37:29.501Z,17136.00
2022-08-20T10:42:41.835Z,17964.00
2022-08-20T10:47:44.006Z,18576.00
2022-08-20T10:52:51.259Z,20988.00
2022-08-20T10:58:00.442Z,20808.00
2022-08-20T11:03:07.708Z,21492.00
2022-08-20T11:08:14.902Z,21600.00
2022-08-20T11:13:22.126Z,21672.00
2022-08-20T11:18:29.388Z,19440.00
2022-08-20T11:23:36.523Z,16668.00
2022-08-20T11:28:43.679Z,17460.00
2022-08-20T11:33:50.863Z,19728.00
2022-08-20T11:38:58.107Z,18252.00
2022-08-20T11:44:20.045Z,19872.00
2022-08-20T11:49:12.535Z,18432.00
2022-08-20T11:54:19.742Z,16416.00
2022-08-20T11:59:26.941Z,17784.00
2022-08-20T12:04:35.317Z,16884.00
2022-08-20T12:09:43.164Z,18216.00
2022-08-20T12:14:48.629Z,18000.00
2022-08-20T12:19:55.827Z,18504.00
2022-08-20T12:25:03.056Z,18828.00
2022-08-20T12:30:10.262Z,18324.00
2022-08-20T12:35:17.448Z,17856.00
2022-08-20T12:40:31.877Z,17640.00
2022-08-20T12:45:31.892Z,15768.00
2022-08-20T12:50:39.086Z,15192.00
2022-08-20T12:55:46.295Z,15552.00
2022-08-20T13:00:53.462Z,15912.00
2022-08-20T13:06:00.636Z,14544.00
2022-08-20T13:11:07.824Z,13860.00
2022-08-20T13:16:15.038Z,14436.00
2022-08-20T13:21:23.991Z,17136.00
2022-08-20T13:26:29.467Z,17388.00
2022-08-20T13:31:36.657Z,16956.00
2022-08-20T13:36:43.890Z,17748.00
2022-08-20T13:41:51.153Z,21240.00
2022-08-20T13:46:58.407Z,21024.00
2022-08-20T13:52:05.633Z,19044.00
2022-08-20T13:57:12.788Z,19908.00
2022-08-20T14:02:20.019Z,20628.00
2022-08-20T14:07:32.018Z,21456.00
2022-08-20T14:12:36.820Z,20376.00
2022-08-20T14:17:43.999Z,20124.00
2022-08-20T14:22:51.323Z,20232.00
2022-08-20T14:27:58.441Z,20664.00
2022-08-20T14:33:05.699Z,20124.00
2022-08-20T14:38:12.890Z,13716.00
2022-08-20T14:43:20.067Z,13428.00
2022-08-20T14:48:27.255Z,13824.00
2022-08-20T14:53:38.590Z,12924.00
2022-08-20T14:58:42.021Z,11628.00
2022-08-20T15:03:49.215Z,10188.00
2022-08-20T15:08:56.400Z,8604.00
2022-08-20T15:14:03.565Z,7416.00
2022-08-20T15:19:10.838Z,6876.00
2022-08-20T15:24:19.243Z,6012.00
2022-08-20T15:29:25.352Z,5220.00
2022-08-20T15:34:32.505Z,5940.00
2022-08-20T15:39:39.723Z,5544.00
2022-08-20T15:44:46.955Z,6624.00
2022-08-20T15:49:54.189Z,7344.00
2022-08-20T15:55:01.451Z,8712.00
2022-08-20T16:00:08.665Z,7020.00
2022-08-20T16:05:15.955Z,7128.00
2022-08-20T16:10:23.134Z,7200.00
2022-08-20T16:15:30.309Z,5724.00
2022-08-20T16:20:37.568Z,3852.00
2022-08-20T16:25:44.772Z,2880.00
2022-08-20T16:30:51.984Z,2628.00
2022-08-20T16:35:59.132Z,1908.00
2022-08-20T16:41:06.368Z,2088.00
2022-08-20T16:46:13.589Z,2700.00
2022-08-20T16:51:20.823Z,3708.00
2022-08-20T16:56:28.143Z,5004.00
2022-08-20T17:01:35.395Z,4428.00
2022-08-20T17:06:42.489Z,4536.00
2022-08-20T17:11:49.762Z,4968.00
2022-08-20T17:16:57.040Z,4572.00
2022-08-20T17:22:04.294Z,4608.00
2022-08-20T17:27:11.560Z,4860.00
2022-08-20T17:32:18.808Z,5832.00
2022-08-20T17:37:26.110Z,7092.00
2022-08-20T17:42:33.351Z,5508.00
2022-08-20T17:47:40.556Z,4752.00
2022-08-20T17:52:47.741Z,4140.00
2022-08-20T17:57:54.915Z,4068.00
2022-08-20T18:03:02.171Z,3492.00
2022-08-20T18:08:09.383Z,2880.00
2022-08-20T18:13:16.595Z,2520.00
2022-08-20T18:18:23.860Z,1512.00
2022-08-20T18:23:31.044Z,1332.00
2022-08-20T18:28:38.857Z,1188.00
2022-08-20T18:33:45.403Z,1116.00
2022-08-20T18:38:52.592Z,11016.00
2022-08-20T18:44:00.115Z,11304.00
2022-08-20T18:49:07.393Z,10980.00
2022-08-20T18:54:14.556Z,11016.00
2022-08-20T18:59:21.757Z,10908.00
2022-08-20T19:04:28.970Z,11016.00
2022-08-20T19:09:36.259Z,11016.00
2022-08-20T19:14:43.457Z,11088.00
2022-08-20T19:19:50.680Z,11088.00
2022-08-20T19:24:57.923Z,11340.00
2022-08-20T19:30:05.107Z,11448.00
2022-08-20T19:35:12.334Z,11052.00
2022-08-20T19:40:19.565Z,11160.00
2022-08-20T19:45:26.724Z,11304.00
2022-08-20T19:50:33.967Z,11664.00
2022-08-20T19:55:41.174Z,11196.00
2022-08-20T20:00:48.340Z,11160.00
2022-08-20T20:05:55.587Z,11016.00
2022-08-20T20:11:02.850Z,11232.00
2022-08-20T20:16:10.049Z,11304.00
2022-08-20T20:21:17.426Z,11268.00
2022-08-20T20:26:24.676Z,11088.00
2022-08-20T20:31:31.927Z,11088.00
2022-08-20T20:36:39.369Z,11088.00
2022-08-20T20:41:46.645Z,11088.00
2022-08-20T20:46:53.825Z,10656.00
2022-08-20T20:52:01.061Z,10404.00
2022-08-20T20:57:08.203Z,10368.00
2022-08-20T21:02:15.407Z,10332.00
2022-08-20T21:07:22.558Z,10404.00
2022-08-20T21:12:29.762Z,10476.00
2022-08-20T21:17:36.997Z,10476.00
2022-08-20T21:22:44.166Z,10476.00
2022-08-20T21:27:51.304Z,10548.00
2022-08-20T21:32:58.717Z,10512.00
2022-08-20T21:38:05.701Z,10620.00
2022-08-20T21:43:12.943Z,10476.00
2022-08-20T21:48:20.187Z,10404.00
2022-08-20T21:53:27.457Z,11016.00
2022-08-20T21:58:34.872Z,11124.00
2022-08-20T22:03:42.102Z,10980.00
2022-08-20T22:08:49.396Z,11052.00
2022-08-20T22:13:56.740Z,10980.00
2022-08-20T22:19:03.948Z,11052.00
2022-08-20T22:24:11.185Z,10944.00
2022-08-20T22:29:18.403Z,11016.00
2022-08-20T22:34:25.627Z,10872.00
2022-08-20T22:39:32.884Z,11232.00
2022-08-20T22:44:40.068Z,11232.00
2022-08-20T22:49:47.311Z,11304.00
2022-08-20T22:54:54.518Z,864.00
2022-08-20T23:00:01.806Z,-72.00
2022-08-20T23:05:09.135Z,-72.00
2022-08-20T23:10:16.341Z,-36.00
2022-08-20T23:15:23.601Z,-36.00
2022-08-20T23:20:30.837Z,-36.00
2022-08-20T23:25:38.053Z,-36.00
2022-08-20T23:30:46.907Z,-36.00
2022-08-20T23:35:54.122Z,-36.00
2022-08-20T23:41:01.344Z,-36.00
2022-08-20T23:46:08.525Z,-36.00
2022-08-20T23:51:15.706Z,-36.00
2022-08-20T23:56:22.880Z,-36.00
